sensor_id;sensor_type;location;lat;lon;timestamp;pressure;altitude;pressure_sealevel;temperature;humidity
10948;BME280;5526;42.070;24.752;2023-02-03T00:00:46;99175.75;;;6.26;64.60
10948;BME280;5526;42.070;24.752;2023-02-03T00:03:14;99182.59;;;6.27;65.43
10948;BME280;5526;42.070;24.752;2023-02-03T00:05:41;99194.63;;;6.28;63.97
10948;BME280;5526;42.070;24.752;2023-02-03T00:08:10;99197.59;;;6.31;64.38
10948;BME280;5526;42.070;24.752;2023-02-03T00:10:38;99181.47;;;6.34;63.48
10948;BME280;5526;42.070;24.752;2023-02-03T00:13:06;99151.75;;;6.17;61.79
10948;BME280;5526;42.070;24.752;2023-02-03T00:15:34;99170.22;;;6.34;62.50
10948;BME280;5526;42.070;24.752;2023-02-03T00:18:01;99187.31;;;6.48;61.35
10948;BME280;5526;42.070;24.752;2023-02-03T00:20:28;99186.78;;;6.57;60.66
10948;BME280;5526;42.070;24.752;2023-02-03T00:23:02;99200.56;;;6.64;60.39
10948;BME280;5526;42.070;24.752;2023-02-03T00:25:30;99201.81;;;6.62;59.97
10948;BME280;5526;42.070;24.752;2023-02-03T00:28:00;99181.88;;;6.49;58.90
10948;BME280;5526;42.070;24.752;2023-02-03T00:30:27;99195.78;;;6.61;59.77
10948;BME280;5526;42.070;24.752;2023-02-03T00:32:55;99196.94;;;6.65;59.76
10948;BME280;5526;42.070;24.752;2023-02-03T00:35:22;99189.44;;;6.69;59.80
10948;BME280;5526;42.070;24.752;2023-02-03T00:37:53;99195.81;;;6.73;59.42
10948;BME280;5526;42.070;24.752;2023-02-03T00:40:22;99191.97;;;6.75;59.62
10948;BME280;5526;42.070;24.752;2023-02-03T00:42:51;99187.53;;;6.76;58.90
10948;BME280;5526;42.070;24.752;2023-02-03T00:45:19;99188.78;;;6.73;58.96
10948;BME280;5526;42.070;24.752;2023-02-03T00:47:46;99188.78;;;6.73;59.16
10948;BME280;5526;42.070;24.752;2023-02-03T00:50:13;99188.66;;;6.68;58.99
10948;BME280;5526;42.070;24.752;2023-02-03T00:52:40;99187.75;;;6.74;58.95
10948;BME280;5526;42.070;24.752;2023-02-03T00:55:07;99182.84;;;6.66;58.34
10948;BME280;5526;42.070;24.752;2023-02-03T00:57:35;99199.66;;;6.70;57.98
10948;BME280;5526;42.070;24.752;2023-02-03T01:00:04;99188.44;;;6.70;57.99
10948;BME280;5526;42.070;24.752;2023-02-03T01:02:31;99188.97;;;6.60;57.60
10948;BME280;5526;42.070;24.752;2023-02-03T01:04:58;99202.38;;;6.64;58.16
10948;BME280;5526;42.070;24.752;2023-02-03T01:07:25;99210.44;;;6.62;58.08
10948;BME280;5526;42.070;24.752;2023-02-03T01:09:52;99205.91;;;6.58;58.02
10948;BME280;5526;42.070;24.752;2023-02-03T01:12:19;99213.38;;;6.54;58.21
10948;BME280;5526;42.070;24.752;2023-02-03T01:14:46;99205.91;;;6.58;58.36
10948;BME280;5526;42.070;24.752;2023-02-03T01:17:15;99201.13;;;6.55;57.98
10948;BME280;5526;42.070;24.752;2023-02-03T01:19:42;99212.44;;;6.49;58.34
10948;BME280;5526;42.070;24.752;2023-02-03T01:22:08;99210.03;;;6.47;58.57
10948;BME280;5526;42.070;24.752;2023-02-03T01:24:36;99210.31;;;6.57;58.70
10948;BME280;5526;42.070;24.752;2023-02-03T01:27:03;99205.22;;;6.62;58.90
10948;BME280;5526;42.070;24.752;2023-02-03T01:29:30;99213.81;;;6.51;59.55
10948;BME280;5526;42.070;24.752;2023-02-03T01:31:57;99218.47;;;6.49;59.72
10948;BME280;5526;42.070;24.752;2023-02-03T01:34:26;99226.63;;;6.41;60.42
10948;BME280;5526;42.070;24.752;2023-02-03T01:36:53;99218.28;;;6.33;60.58
10948;BME280;5526;42.070;24.752;2023-02-03T01:39:20;99232.06;;;6.40;60.27
10948;BME280;5526;42.070;24.752;2023-02-03T01:41:47;99236.44;;;6.46;60.75
10948;BME280;5526;42.070;24.752;2023-02-03T01:44:37;99233.31;;;6.37;60.95
10948;BME280;5526;42.070;24.752;2023-02-03T01:47:23;99249.22;;;6.36;62.13
10948;BME280;5526;42.070;24.752;2023-02-03T01:50:02;99227.47;;;6.24;62.56
10948;BME280;5526;42.070;24.752;2023-02-03T01:52:32;99234.06;;;6.26;63.32
10948;BME280;5526;42.070;24.752;2023-02-03T01:55:02;99243.00;;;6.19;63.64
10948;BME280;5526;42.070;24.752;2023-02-03T01:57:33;99242.53;;;6.22;64.03
10948;BME280;5526;42.070;24.752;2023-02-03T02:00:05;99233.13;;;6.21;64.36
10948;BME280;5526;42.070;24.752;2023-02-03T02:02:32;99251.47;;;6.14;65.42
10948;BME280;5526;42.070;24.752;2023-02-03T02:05:05;99246.59;;;6.18;65.07
10948;BME280;5526;42.070;24.752;2023-02-03T02:07:34;99259.03;;;6.04;66.41
10948;BME280;5526;42.070;24.752;2023-02-03T02:10:04;99271.00;;;6.12;66.70
10948;BME280;5526;42.070;24.752;2023-02-03T02:12:31;99251.25;;;5.98;67.36
10948;BME280;5526;42.070;24.752;2023-02-03T02:14:58;99255.25;;;5.82;68.29
10948;BME280;5526;42.070;24.752;2023-02-03T02:17:46;99257.56;;;5.90;68.72
10948;BME280;5526;42.070;24.752;2023-02-03T02:20:32;99265.41;;;5.90;68.90
10948;BME280;5526;42.070;24.752;2023-02-03T02:23:24;99261.50;;;5.99;68.63
10948;BME280;5526;42.070;24.752;2023-02-03T02:26:15;99267.88;;;6.03;68.54
10948;BME280;5526;42.070;24.752;2023-02-03T02:29:10;99261.72;;;5.98;69.19
10948;BME280;5526;42.070;24.752;2023-02-03T02:31:54;99253.81;;;5.86;69.03
10948;BME280;5526;42.070;24.752;2023-02-03T02:34:33;99265.88;;;6.05;69.27
10948;BME280;5526;42.070;24.752;2023-02-03T02:37:06;99280.19;;;5.96;69.36
10948;BME280;5526;42.070;24.752;2023-02-03T02:39:46;99277.16;;;5.99;69.27
10948;BME280;5526;42.070;24.752;2023-02-03T02:42:25;99273.25;;;5.90;69.21
10948;BME280;5526;42.070;24.752;2023-02-03T02:45:02;99281.09;;;5.90;69.71
10948;BME280;5526;42.070;24.752;2023-02-03T02:47:32;99286.72;;;5.87;69.46
10948;BME280;5526;42.070;24.752;2023-02-03T02:50:03;99286.41;;;5.77;70.04
10948;BME280;5526;42.070;24.752;2023-02-03T02:52:34;99286.31;;;5.90;69.32
10948;BME280;5526;42.070;24.752;2023-02-03T02:55:12;99283.56;;;5.79;69.96
10948;BME280;5526;42.070;24.752;2023-02-03T02:57:41;99286.38;;;5.84;70.00
10948;BME280;5526;42.070;24.752;2023-02-03T03:00:11;99293.44;;;5.77;69.67
10948;BME280;5526;42.070;24.752;2023-02-03T03:02:40;99279.16;;;5.79;69.39
10948;BME280;5526;42.070;24.752;2023-02-03T03:05:09;99292.03;;;5.81;69.64
10948;BME280;5526;42.070;24.752;2023-02-03T03:07:41;99284.78;;;5.76;69.39
10948;BME280;5526;42.070;24.752;2023-02-03T03:10:12;99285.19;;;5.80;69.36
10948;BME280;5526;42.070;24.752;2023-02-03T03:12:45;99295.00;;;5.84;69.34
10948;BME280;5526;42.070;24.752;2023-02-03T03:15:18;99296.38;;;5.62;69.31
10948;BME280;5526;42.070;24.752;2023-02-03T03:17:52;99292.06;;;5.74;69.00
10948;BME280;5526;42.070;24.752;2023-02-03T03:20:24;99297.69;;;5.71;68.51
10948;BME280;5526;42.070;24.752;2023-02-03T03:22:56;99294.66;;;5.74;67.83
10948;BME280;5526;42.070;24.752;2023-02-03T03:25:30;99286.94;;;5.61;67.74
10948;BME280;5526;42.070;24.752;2023-02-03T03:28:03;99301.69;;;5.74;67.54
10948;BME280;5526;42.070;24.752;2023-02-03T03:30:34;99307.59;;;5.63;67.20
10948;BME280;5526;42.070;24.752;2023-02-03T03:33:03;99308.69;;;5.80;67.07
10948;BME280;5526;42.070;24.752;2023-02-03T03:35:37;99317.28;;;5.80;66.26
10948;BME280;5526;42.070;24.752;2023-02-03T03:38:08;99320.94;;;5.79;66.12
10948;BME280;5526;42.070;24.752;2023-02-03T03:40:40;99315.97;;;5.71;65.32
10948;BME280;5526;42.070;24.752;2023-02-03T03:43:13;99321.00;;;5.73;65.75
10948;BME280;5526;42.070;24.752;2023-02-03T03:45:43;99323.94;;;5.83;65.17
10948;BME280;5526;42.070;24.752;2023-02-03T03:48:18;99327.94;;;5.79;64.83
10948;BME280;5526;42.070;24.752;2023-02-03T03:50:52;99330.56;;;5.79;64.60
10948;BME280;5526;42.070;24.752;2023-02-03T03:53:21;99336.25;;;5.76;64.64
10948;BME280;5526;42.070;24.752;2023-02-03T03:55:50;99332.41;;;5.78;64.50
10948;BME280;5526;42.070;24.752;2023-02-03T03:58:21;99322.16;;;5.77;63.53
10948;BME280;5526;42.070;24.752;2023-02-03T04:00:53;99330.56;;;5.79;63.17
10948;BME280;5526;42.070;24.752;2023-02-03T04:03:24;99330.97;;;5.82;63.40
10948;BME280;5526;42.070;24.752;2023-02-03T04:05:54;99346.22;;;5.79;63.11
10948;BME280;5526;42.070;24.752;2023-02-03T04:08:21;99338.63;;;5.77;62.67
10948;BME280;5526;42.070;24.752;2023-02-03T04:10:48;99343.84;;;5.77;62.67
10948;BME280;5526;42.070;24.752;2023-02-03T04:13:15;99357.13;;;5.76;62.66
10948;BME280;5526;42.070;24.752;2023-02-03T04:15:45;99360.16;;;5.73;62.99
10948;BME280;5526;42.070;24.752;2023-02-03T04:18:13;99359.63;;;5.64;63.37
10948;BME280;5526;42.070;24.752;2023-02-03T04:20:42;99362.63;;;5.68;63.42
10948;BME280;5526;42.070;24.752;2023-02-03T04:23:09;99367.59;;;5.69;63.70
10948;BME280;5526;42.070;24.752;2023-02-03T04:25:36;99373.00;;;5.74;63.75
10948;BME280;5526;42.070;24.752;2023-02-03T04:28:03;99363.09;;;5.58;64.07
10948;BME280;5526;42.070;24.752;2023-02-03T04:30:31;99361.59;;;5.69;64.31
10948;BME280;5526;42.070;24.752;2023-02-03T04:32:58;99359.09;;;5.56;65.47
10948;BME280;5526;42.070;24.752;2023-02-03T04:35:26;99364.94;;;5.51;66.34
10948;BME280;5526;42.070;24.752;2023-02-03T04:37:54;99361.47;;;5.57;66.29
10948;BME280;5526;42.070;24.752;2023-02-03T04:40:21;99368.59;;;5.44;67.42
10948;BME280;5526;42.070;24.752;2023-02-03T04:42:48;99379.38;;;5.54;67.17
10948;BME280;5526;42.070;24.752;2023-02-03T04:45:15;99357.53;;;5.48;67.69
10948;BME280;5526;42.070;24.752;2023-02-03T04:47:42;99367.72;;;5.56;67.98
10948;BME280;5526;42.070;24.752;2023-02-03T04:50:09;99359.72;;;5.51;68.53
10948;BME280;5526;42.070;24.752;2023-02-03T04:52:36;99347.69;;;5.50;68.75
10948;BME280;5526;42.070;24.752;2023-02-03T04:55:06;99346.50;;;5.46;69.29
10948;BME280;5526;42.070;24.752;2023-02-03T04:57:33;99347.34;;;5.40;69.39
10948;BME280;5526;42.070;24.752;2023-02-03T05:00:00;99350.75;;;5.41;69.91
10948;BME280;5526;42.070;24.752;2023-02-03T05:02:27;99337.97;;;5.33;70.05
10948;BME280;5526;42.070;24.752;2023-02-03T05:04:54;99342.28;;;5.45;69.70
10948;BME280;5526;42.070;24.752;2023-02-03T05:07:21;99336.97;;;5.34;70.34
10948;BME280;5526;42.070;24.752;2023-02-03T05:09:48;99351.47;;;5.23;70.99
10948;BME280;5526;42.070;24.752;2023-02-03T05:12:16;99351.63;;;5.28;70.38
10948;BME280;5526;42.070;24.752;2023-02-03T05:14:43;99349.09;;;5.22;70.67
10948;BME280;5526;42.070;24.752;2023-02-03T05:17:10;99345.09;;;5.19;71.10
10948;BME280;5526;42.070;24.752;2023-02-03T05:19:37;99351.03;;;5.26;70.30
10948;BME280;5526;42.070;24.752;2023-02-03T05:22:04;99361.97;;;5.10;70.37
10948;BME280;5526;42.070;24.752;2023-02-03T05:24:31;99363.59;;;5.11;70.08
10948;BME280;5526;42.070;24.752;2023-02-03T05:26:58;99372.84;;;5.07;69.72
10948;BME280;5526;42.070;24.752;2023-02-03T05:29:26;99378.19;;;5.19;68.78
10948;BME280;5526;42.070;24.752;2023-02-03T05:31:53;99387.81;;;5.18;69.02
10948;BME280;5526;42.070;24.752;2023-02-03T05:34:20;99383.59;;;5.17;68.73
10948;BME280;5526;42.070;24.752;2023-02-03T05:36:47;99403.25;;;5.20;68.33
10948;BME280;5526;42.070;24.752;2023-02-03T05:39:14;99377.00;;;5.15;67.74
10948;BME280;5526;42.070;24.752;2023-02-03T05:41:41;99394.16;;;5.35;67.18
10948;BME280;5526;42.070;24.752;2023-02-03T05:44:20;99403.38;;;5.38;66.73
10948;BME280;5526;42.070;24.752;2023-02-03T05:46:50;99393.75;;;5.38;65.94
10948;BME280;5526;42.070;24.752;2023-02-03T05:49:18;99398.59;;;5.28;66.56
10948;BME280;5526;42.070;24.752;2023-02-03T05:51:45;99401.19;;;5.35;65.68
10948;BME280;5526;42.070;24.752;2023-02-03T05:54:13;99394.78;;;5.31;66.41
10948;BME280;5526;42.070;24.752;2023-02-03T05:56:40;99398.72;;;5.40;66.00
10948;BME280;5526;42.070;24.752;2023-02-03T05:59:07;99403.00;;;5.28;66.03
10948;BME280;5526;42.070;24.752;2023-02-03T06:01:35;99402.75;;;5.36;66.15
10948;BME280;5526;42.070;24.752;2023-02-03T06:04:04;99413.03;;;5.31;66.16
10948;BME280;5526;42.070;24.752;2023-02-03T06:06:31;99420.25;;;5.35;66.08
10948;BME280;5526;42.070;24.752;2023-02-03T06:08:59;99426.03;;;5.37;65.58
10948;BME280;5526;42.070;24.752;2023-02-03T06:11:26;99435.25;;;5.46;64.80
10948;BME280;5526;42.070;24.752;2023-02-03T06:13:53;99430.03;;;5.46;64.69
10948;BME280;5526;42.070;24.752;2023-02-03T06:16:23;99438.09;;;5.38;64.50
10948;BME280;5526;42.070;24.752;2023-02-03T06:18:50;99443.69;;;5.42;64.24
10948;BME280;5526;42.070;24.752;2023-02-03T06:21:19;99453.47;;;5.53;64.08
10948;BME280;5526;42.070;24.752;2023-02-03T06:23:47;99454.00;;;5.61;63.26
10948;BME280;5526;42.070;24.752;2023-02-03T06:26:14;99462.44;;;5.63;62.84
10948;BME280;5526;42.070;24.752;2023-02-03T06:28:41;99467.22;;;5.73;62.04
10948;BME280;5526;42.070;24.752;2023-02-03T06:31:08;99478.69;;;5.72;62.15
10948;BME280;5526;42.070;24.752;2023-02-03T06:33:35;99483.47;;;5.81;61.72
10948;BME280;5526;42.070;24.752;2023-02-03T06:36:02;99483.84;;;5.78;62.35
10948;BME280;5526;42.070;24.752;2023-02-03T06:38:31;99482.06;;;5.72;61.88
10948;BME280;5526;42.070;24.752;2023-02-03T06:40:58;99475.00;;;5.79;61.27
10948;BME280;5526;42.070;24.752;2023-02-03T06:43:25;99485.16;;;5.94;61.56
10948;BME280;5526;42.070;24.752;2023-02-03T06:45:52;99494.31;;;6.09;60.64
10948;BME280;5526;42.070;24.752;2023-02-03T06:48:19;99497.50;;;6.11;60.23
10948;BME280;5526;42.070;24.752;2023-02-03T06:50:46;99497.66;;;6.16;60.35
10948;BME280;5526;42.070;24.752;2023-02-03T06:53:13;99503.97;;;6.09;59.73
10948;BME280;5526;42.070;24.752;2023-02-03T06:55:41;99506.63;;;6.02;60.49
10948;BME280;5526;42.070;24.752;2023-02-03T06:58:08;99514.25;;;6.04;60.63
10948;BME280;5526;42.070;24.752;2023-02-03T07:00:35;99512.00;;;6.07;60.56
10948;BME280;5526;42.070;24.752;2023-02-03T07:03:02;99519.44;;;6.10;60.67
10948;BME280;5526;42.070;24.752;2023-02-03T07:05:29;99531.28;;;6.13;60.66
10948;BME280;5526;42.070;24.752;2023-02-03T07:07:56;99525.69;;;6.09;60.37
10948;BME280;5526;42.070;24.752;2023-02-03T07:10:23;99527.06;;;6.12;60.31
10948;BME280;5526;42.070;24.752;2023-02-03T07:12:52;99526.03;;;6.13;60.62
10948;BME280;5526;42.070;24.752;2023-02-03T07:15:19;99509.50;;;5.94;60.77
10948;BME280;5526;42.070;24.752;2023-02-03T07:17:46;99524.59;;;6.17;60.30
10948;BME280;5526;42.070;24.752;2023-02-03T07:20:20;99533.81;;;6.19;59.70
10948;BME280;5526;42.070;24.752;2023-02-03T07:22:51;99519.50;;;6.28;59.92
10948;BME280;5526;42.070;24.752;2023-02-03T07:25:19;99512.59;;;6.34;60.15
10948;BME280;5526;42.070;24.752;2023-02-03T07:27:46;99517.94;;;6.70;59.37
10948;BME280;5526;42.070;24.752;2023-02-03T07:30:15;99504.59;;;6.78;58.55
10948;BME280;5526;42.070;24.752;2023-02-03T07:32:45;99505.94;;;6.62;58.76
10948;BME280;5526;42.070;24.752;2023-02-03T07:35:12;99498.22;;;6.49;59.30
10948;BME280;5526;42.070;24.752;2023-02-03T07:37:40;99502.06;;;6.47;59.78
10948;BME280;5526;42.070;24.752;2023-02-03T07:40:08;99508.56;;;6.38;59.83
10948;BME280;5526;42.070;24.752;2023-02-03T07:42:37;99512.84;;;6.32;60.59
10948;BME280;5526;42.070;24.752;2023-02-03T07:45:05;99522.69;;;6.30;60.96
10948;BME280;5526;42.070;24.752;2023-02-03T07:47:34;99524.41;;;6.18;61.31
10948;BME280;5526;42.070;24.752;2023-02-03T07:50:01;99541.47;;;6.21;61.85
10948;BME280;5526;42.070;24.752;2023-02-03T07:52:28;99528.53;;;6.32;61.14
10948;BME280;5526;42.070;24.752;2023-02-03T07:54:55;99537.91;;;6.64;60.86
10948;BME280;5526;42.070;24.752;2023-02-03T07:57:22;99525.03;;;6.87;59.90
10948;BME280;5526;42.070;24.752;2023-02-03T07:59:49;99543.06;;;6.95;59.85
10948;BME280;5526;42.070;24.752;2023-02-03T08:02:16;99554.59;;;7.06;58.67
10948;BME280;5526;42.070;24.752;2023-02-03T08:04:44;99548.56;;;7.05;59.18
10948;BME280;5526;42.070;24.752;2023-02-03T08:07:11;99540.34;;;7.20;57.70
10948;BME280;5526;42.070;24.752;2023-02-03T08:09:38;99547.06;;;7.34;58.00
10948;BME280;5526;42.070;24.752;2023-02-03T08:12:05;99549.47;;;7.35;57.69
10948;BME280;5526;42.070;24.752;2023-02-03T08:14:32;99557.47;;;7.22;57.29
10948;BME280;5526;42.070;24.752;2023-02-03T08:16:59;99540.44;;;7.31;56.98
10948;BME280;5526;42.070;24.752;2023-02-03T08:19:26;99546.09;;;7.28;57.89
10948;BME280;5526;42.070;24.752;2023-02-03T08:21:55;99548.34;;;7.43;57.05
10948;BME280;5526;42.070;24.752;2023-02-03T08:24:23;99556.78;;;7.27;57.38
10948;BME280;5526;42.070;24.752;2023-02-03T08:26:50;99551.56;;;7.45;57.28
10948;BME280;5526;42.070;24.752;2023-02-03T08:29:19;99546.53;;;7.61;57.33
10948;BME280;5526;42.070;24.752;2023-02-03T08:31:46;99538.56;;;7.38;57.37
10948;BME280;5526;42.070;24.752;2023-02-03T08:34:13;99538.50;;;7.74;56.62
10948;BME280;5526;42.070;24.752;2023-02-03T08:36:40;99539.31;;;7.57;55.88
10948;BME280;5526;42.070;24.752;2023-02-03T08:39:10;99543.22;;;7.66;56.79
10948;BME280;5526;42.070;24.752;2023-02-03T08:41:37;99556.97;;;7.79;56.09
10948;BME280;5526;42.070;24.752;2023-02-03T08:44:04;99578.63;;;7.57;56.10
10948;BME280;5526;42.070;24.752;2023-02-03T08:46:31;99557.88;;;7.37;56.12
10948;BME280;5526;42.070;24.752;2023-02-03T08:49:00;99557.13;;;7.66;55.57
10948;BME280;5526;42.070;24.752;2023-02-03T08:51:28;99562.50;;;7.71;56.09
10948;BME280;5526;42.070;24.752;2023-02-03T08:53:55;99570.44;;;7.83;55.10
10948;BME280;5526;42.070;24.752;2023-02-03T08:56:23;99577.75;;;8.98;52.65
10948;BME280;5526;42.070;24.752;2023-02-03T08:58:52;99581.19;;;8.22;54.19
10948;BME280;5526;42.070;24.752;2023-02-03T09:01:19;99585.06;;;8.02;53.40
10948;BME280;5526;42.070;24.752;2023-02-03T09:03:46;99576.75;;;7.93;53.42
10948;BME280;5526;42.070;24.752;2023-02-03T09:06:13;99576.06;;;8.27;53.16
10948;BME280;5526;42.070;24.752;2023-02-03T09:08:41;99612.59;;;8.40;52.24
10948;BME280;5526;42.070;24.752;2023-02-03T09:11:08;99567.69;;;8.60;52.08
10948;BME280;5526;42.070;24.752;2023-02-03T09:13:37;99575.13;;;8.51;51.02
10948;BME280;5526;42.070;24.752;2023-02-03T09:16:05;99555.94;;;8.62;51.51
10948;BME280;5526;42.070;24.752;2023-02-03T09:18:32;99563.38;;;8.54;51.00
10948;BME280;5526;42.070;24.752;2023-02-03T09:21:00;99569.19;;;8.56;50.51
10948;BME280;5526;42.070;24.752;2023-02-03T09:23:27;99559.38;;;8.74;50.32
10948;BME280;5526;42.070;24.752;2023-02-03T09:25:55;99562.41;;;8.37;49.41
10948;BME280;5526;42.070;24.752;2023-02-03T09:28:22;99558.47;;;8.16;49.29
10948;BME280;5526;42.070;24.752;2023-02-03T09:30:50;99546.47;;;8.38;47.82
10948;BME280;5526;42.070;24.752;2023-02-03T09:33:17;99561.97;;;8.40;48.65
10948;BME280;5526;42.070;24.752;2023-02-03T09:35:50;99557.22;;;8.60;49.53
10948;BME280;5526;42.070;24.752;2023-02-03T09:38:18;99538.72;;;8.43;49.08
10948;BME280;5526;42.070;24.752;2023-02-03T09:40:46;99553.09;;;8.52;49.07
10948;BME280;5526;42.070;24.752;2023-02-03T09:43:28;99543.88;;;8.84;48.52
10948;BME280;5526;42.070;24.752;2023-02-03T09:46:05;99539.09;;;8.93;48.63
10948;BME280;5526;42.070;24.752;2023-02-03T09:48:36;99537.59;;;8.97;49.36
10948;BME280;5526;42.070;24.752;2023-02-03T09:51:07;99514.66;;;8.46;48.45
10948;BME280;5526;42.070;24.752;2023-02-03T09:53:46;99529.28;;;8.88;47.22
10948;BME280;5526;42.070;24.752;2023-02-03T09:56:21;99549.09;;;8.96;46.99
10948;BME280;5526;42.070;24.752;2023-02-03T09:58:51;99542.72;;;9.27;46.49
10948;BME280;5526;42.070;24.752;2023-02-03T10:01:20;99542.16;;;9.13;45.16
10948;BME280;5526;42.070;24.752;2023-02-03T10:03:52;99545.41;;;9.43;44.92
10948;BME280;5526;42.070;24.752;2023-02-03T10:06:29;99523.31;;;9.56;44.28
10948;BME280;5526;42.070;24.752;2023-02-03T10:09:11;99531.56;;;9.87;44.44
10948;BME280;5526;42.070;24.752;2023-02-03T10:11:54;99544.47;;;9.89;43.43
10948;BME280;5526;42.070;24.752;2023-02-03T10:14:36;99530.13;;;9.96;42.54
10948;BME280;5526;42.070;24.752;2023-02-03T10:17:21;99539.16;;;9.10;43.07
10948;BME280;5526;42.070;24.752;2023-02-03T10:19:57;99544.53;;;9.03;44.01
10948;BME280;5526;42.070;24.752;2023-02-03T10:22:29;99554.28;;;8.79;44.38
10948;BME280;5526;42.070;24.752;2023-02-03T10:24:59;99531.06;;;9.11;43.91
10948;BME280;5526;42.070;24.752;2023-02-03T10:27:27;99553.81;;;9.57;43.98
10948;BME280;5526;42.070;24.752;2023-02-03T10:29:58;99551.53;;;9.60;42.68
10948;BME280;5526;42.070;24.752;2023-02-03T10:32:28;99545.34;;;9.27;42.82
10948;BME280;5526;42.070;24.752;2023-02-03T10:34:56;99529.31;;;9.40;43.06
10948;BME280;5526;42.070;24.752;2023-02-03T10:37:26;99540.34;;;9.93;42.12
10948;BME280;5526;42.070;24.752;2023-02-03T10:39:54;99532.13;;;10.34;41.50
10948;BME280;5526;42.070;24.752;2023-02-03T10:42:23;99533.66;;;10.02;42.26
10948;BME280;5526;42.070;24.752;2023-02-03T10:44:53;99516.41;;;10.22;41.81
10948;BME280;5526;42.070;24.752;2023-02-03T10:47:27;99531.63;;;9.25;41.34
10948;BME280;5526;42.070;24.752;2023-02-03T10:50:04;99525.84;;;9.00;42.13
10948;BME280;5526;42.070;24.752;2023-02-03T10:52:34;99527.25;;;9.42;42.06
10948;BME280;5526;42.070;24.752;2023-02-03T10:55:05;99512.56;;;9.29;43.27
10948;BME280;5526;42.070;24.752;2023-02-03T10:57:34;99514.88;;;9.82;42.71
10948;BME280;5526;42.070;24.752;2023-02-03T11:00:07;99513.03;;;9.54;42.70
10948;BME280;5526;42.070;24.752;2023-02-03T11:02:54;99497.50;;;9.53;43.45
10948;BME280;5526;42.070;24.752;2023-02-03T11:05:23;99516.53;;;9.32;43.66
10948;BME280;5526;42.070;24.752;2023-02-03T11:07:51;99507.38;;;9.46;42.79
10948;BME280;5526;42.070;24.752;2023-02-03T11:10:34;99502.56;;;9.99;42.04
10948;BME280;5526;42.070;24.752;2023-02-03T11:13:17;99498.00;;;9.78;42.00
10948;BME280;5526;42.070;24.752;2023-02-03T11:15:51;99510.97;;;9.84;41.76
10948;BME280;5526;42.070;24.752;2023-02-03T11:18:53;99498.25;;;9.93;41.01
10948;BME280;5526;42.070;24.752;2023-02-03T11:21:24;99485.59;;;9.62;41.70
10948;BME280;5526;42.070;24.752;2023-02-03T11:23:55;99474.88;;;9.80;41.61
10948;BME280;5526;42.070;24.752;2023-02-03T11:26:25;99486.19;;;9.80;40.77
10948;BME280;5526;42.070;24.752;2023-02-03T11:28:56;99492.75;;;9.50;41.96
10948;BME280;5526;42.070;24.752;2023-02-03T11:31:26;99495.78;;;9.19;42.30
10948;BME280;5526;42.070;24.752;2023-02-03T11:33:56;99486.56;;;9.05;41.97
10948;BME280;5526;42.070;24.752;2023-02-03T11:36:27;99498.09;;;9.04;42.52
10948;BME280;5526;42.070;24.752;2023-02-03T11:39:18;99507.59;;;8.70;41.93
10948;BME280;5526;42.070;24.752;2023-02-03T11:41:46;99490.91;;;8.99;41.68
10948;BME280;5526;42.070;24.752;2023-02-03T11:44:19;99492.91;;;9.60;40.49
10948;BME280;5526;42.070;24.752;2023-02-03T11:46:48;99490.75;;;9.85;40.02
10948;BME280;5526;42.070;24.752;2023-02-03T11:52:22;99476.25;;;10.10;38.48
10948;BME280;5526;42.070;24.752;2023-02-03T11:54:59;99480.94;;;10.08;38.41
10948;BME280;5526;42.070;24.752;2023-02-03T11:57:36;99473.22;;;9.74;39.27
10948;BME280;5526;42.070;24.752;2023-02-03T12:00:18;99472.44;;;9.90;38.87
10948;BME280;5526;42.070;24.752;2023-02-03T12:03:16;99452.84;;;9.53;38.24
10948;BME280;5526;42.070;24.752;2023-02-03T12:05:58;99461.03;;;9.84;39.14
10948;BME280;5526;42.070;24.752;2023-02-03T12:08:40;99454.63;;;10.08;38.11
10948;BME280;5526;42.070;24.752;2023-02-03T12:11:16;99445.75;;;9.98;38.70
10948;BME280;5526;42.070;24.752;2023-02-03T12:13:58;99431.91;;;10.35;39.12
10948;BME280;5526;42.070;24.752;2023-02-03T12:16:49;99424.72;;;10.31;37.39
10948;BME280;5526;42.070;24.752;2023-02-03T12:19:28;99422.91;;;10.15;37.84
10948;BME280;5526;42.070;24.752;2023-02-03T12:22:05;99418.09;;;10.45;36.46
10948;BME280;5526;42.070;24.752;2023-02-03T12:24:46;99413.31;;;10.58;36.93
10948;BME280;5526;42.070;24.752;2023-02-03T12:27:24;99410.94;;;9.91;37.25
10948;BME280;5526;42.070;24.752;2023-02-03T12:29:57;99414.09;;;9.60;37.57
10948;BME280;5526;42.070;24.752;2023-02-03T12:32:33;99401.69;;;9.88;36.91
10948;BME280;5526;42.070;24.752;2023-02-03T12:35:12;99415.09;;;10.03;37.04
10948;BME280;5526;42.070;24.752;2023-02-03T12:37:45;99406.94;;;9.88;36.63
10948;BME280;5526;42.070;24.752;2023-02-03T12:40:18;99405.94;;;10.06;37.24
10948;BME280;5526;42.070;24.752;2023-02-03T12:42:53;99425.44;;;10.43;36.60
10948;BME280;5526;42.070;24.752;2023-02-03T12:45:25;99431.56;;;9.99;37.09
10948;BME280;5526;42.070;24.752;2023-02-03T12:47:57;99411.75;;;10.41;36.58
10948;BME280;5526;42.070;24.752;2023-02-03T12:50:31;99407.28;;;10.41;36.21
10948;BME280;5526;42.070;24.752;2023-02-03T12:53:02;99413.50;;;10.19;36.80
10948;BME280;5526;42.070;24.752;2023-02-03T12:55:34;99401.94;;;9.87;37.20
10948;BME280;5526;42.070;24.752;2023-02-03T12:58:05;99409.31;;;9.73;37.32
10948;BME280;5526;42.070;24.752;2023-02-03T13:00:37;99398.91;;;9.95;36.90
10948;BME280;5526;42.070;24.752;2023-02-03T13:03:13;99410.06;;;10.02;35.84
10948;BME280;5526;42.070;24.752;2023-02-03T13:05:44;99397.19;;;10.17;36.53
10948;BME280;5526;42.070;24.752;2023-02-03T13:08:17;99396.34;;;10.00;36.16
10948;BME280;5526;42.070;24.752;2023-02-03T13:10:52;99380.66;;;9.88;35.66
10948;BME280;5526;42.070;24.752;2023-02-03T13:13:28;99388.56;;;10.05;34.78
10948;BME280;5526;42.070;24.752;2023-02-03T13:15:59;99391.28;;;10.10;35.11
10948;BME280;5526;42.070;24.752;2023-02-03T13:18:30;99403.31;;;10.22;34.36
10948;BME280;5526;42.070;24.752;2023-02-03T13:20:59;99393.44;;;10.29;34.79
10948;BME280;5526;42.070;24.752;2023-02-03T13:23:26;99398.84;;;10.23;35.15
10948;BME280;5526;42.070;24.752;2023-02-03T13:26:15;99398.88;;;10.44;34.21
10948;BME280;5526;42.070;24.752;2023-02-03T13:28:55;99397.09;;;10.88;33.92
10948;BME280;5526;42.070;24.752;2023-02-03T13:31:34;99392.44;;;10.73;33.65